Time;durP1;ratioP1;P1;durP2;ratioP2;P2;SDS_P1;SDS_P2;PMS_P1;PMS_P2;Temp;Humidity;BMP_temperature;BMP_pressure;BME280_temperature;BME280_humidity;BME280_pressure;Samples;Min_cycle;Max_cycle;Signal;HPM_P1;HPM_P2
2023/10/28 00:00:58;;;;;;;0.13;0.13;;;;;;;11.38;79.51;99494.75;5030515;28;20036;-84
2023/10/28 00:03:24;;;;;;;1.33;1.10;;;;;;;11.40;79.21;99507.94;5019959;28;20034;-85
2023/10/28 00:05:51;;;;;;;0.10;0.10;;;;;;;11.41;79.22;99505.22;5022073;28;20030;-86
2023/10/28 00:08:17;;;;;;;1.50;1.42;;;;;;;11.38;79.80;99500.06;5013657;28;20390;-85
2023/10/28 00:10:44;;;;;;;0.10;0.10;;;;;;;11.39;79.76;99508.88;5023733;28;20026;-85
2023/10/28 00:13:12;;;;;;;0.25;0.25;;;;;;;11.41;79.59;99505.22;5012887;28;20033;-85
2023/10/28 00:15:39;;;;;;;1.25;1.23;;;;;;;11.42;80.07;99511.41;5012193;28;20520;-85
2023/10/28 00:18:06;;;;;;;0.10;0.10;;;;;;;11.42;79.59;99503.44;5013807;28;20037;-84
2023/10/28 00:20:34;;;;;;;0.10;0.10;;;;;;;11.41;80.10;99499.91;5012306;28;20100;-84
2023/10/28 00:23:03;;;;;;;0.10;0.10;;;;;;;11.41;79.85;99504.38;5012095;28;20403;-85
2023/10/28 00:25:31;;;;;;;0.47;0.47;;;;;;;11.43;79.84;99505.16;5016071;28;20038;-85
2023/10/28 00:27:58;;;;;;;0.20;0.20;;;;;;;11.43;80.21;99505.16;5016078;28;20087;-85
2023/10/28 00:30:25;;;;;;;0.45;0.45;;;;;;;11.45;80.04;99508.59;5016823;28;20429;-86
2023/10/28 00:32:52;;;;;;;0.10;0.10;;;;;;;11.46;79.92;99516.50;5015184;28;20440;-85
2023/10/28 00:35:21;;;;;;;0.10;0.10;;;;;;;11.47;80.35;99512.91;5012940;28;20125;-84
2023/10/28 00:37:48;;;;;;;0.10;0.10;;;;;;;11.51;80.22;99510.97;5012235;28;20034;-85
2023/10/28 00:40:15;;;;;;;0.20;0.20;;;;;;;11.52;79.93;99512.69;5011653;28;20080;-85
2023/10/28 00:42:41;;;;;;;0.10;0.10;;;;;;;11.54;80.66;99505.53;5013959;28;20413;-85
2023/10/28 00:45:11;;;;;;;0.20;0.20;;;;;;;11.62;79.79;99511.34;5016074;28;20037;-85
2023/10/28 00:47:38;;;;;;;0.20;0.20;;;;;;;11.67;79.85;99512.94;5015812;28;20038;-84
2023/10/28 00:50:10;;;;;;;0.13;0.13;;;;;;;11.73;79.75;99515.31;5013981;28;20029;-86
2023/10/28 00:52:40;;;;;;;0.15;0.15;;;;;;;11.73;79.63;99517.97;5019477;28;20059;-85
2023/10/28 00:55:10;;;;;;;0.20;0.20;;;;;;;11.68;80.51;99512.00;5014946;28;20493;-86
2023/10/28 00:57:38;;;;;;;0.10;0.10;;;;;;;11.63;80.41;99505.09;5015665;28;20497;-85
2023/10/28 01:00:06;;;;;;;0.10;0.10;;;;;;;11.63;80.44;99509.56;5016390;28;20116;-85
2023/10/28 01:02:38;;;;;;;0.10;0.10;;;;;;;11.61;80.57;99517.59;5016921;28;20064;-85
2023/10/28 01:05:05;;;;;;;;;;;;;;;11.75;80.03;99508.13;5018250;28;20493;-85
2023/10/28 01:07:32;;;;;;;0.20;0.20;;;;;;;11.62;79.73;99508.69;5015732;28;20008;-86
2023/10/28 01:09:58;;;;;;;0.10;0.10;;;;;;;11.67;80.41;99502.31;5016767;28;20501;-86
2023/10/28 01:12:26;;;;;;;0.10;0.10;;;;;;;11.65;80.58;99503.25;5014778;28;20104;-86
2023/10/28 01:14:53;;;;;;;0.10;0.10;;;;;;;11.68;80.02;99501.41;5015822;28;20041;-86
2023/10/28 01:17:21;;;;;;;0.10;0.10;;;;;;;11.70;80.36;99494.22;5018359;28;20057;-86
2023/10/28 01:19:47;;;;;;;0.10;0.10;;;;;;;11.75;80.34;99500.16;5014773;28;20501;-85
2023/10/28 01:22:14;;;;;;;0.10;0.10;;;;;;;11.77;80.16;99491.19;5015030;28;20041;-85
2023/10/28 01:24:40;;;;;;;0.10;0.10;;;;;;;11.79;80.89;99491.16;5016007;28;20104;-85
2023/10/28 01:27:09;;;;;;;0.10;0.10;;;;;;;11.81;80.06;99497.22;5014723;28;20113;-86
2023/10/28 01:29:35;;;;;;;0.13;0.13;;;;;;;11.87;80.80;99499.59;5010318;28;20551;-85
2023/10/28 01:32:03;;;;;;;0.17;0.17;;;;;;;11.90;80.79;99502.13;5013241;28;20091;-85
2023/10/28 01:34:30;;;;;;;0.10;0.10;;;;;;;11.94;81.00;99498.38;5015485;28;20562;-85
2023/10/28 01:36:57;;;;;;;0.75;0.47;;;;;;;12.01;80.57;99493.66;5014950;28;20057;-85
2023/10/28 01:39:23;;;;;;;0.10;0.10;;;;;;;12.05;80.98;99495.25;5016062;28;20032;-85
2023/10/28 01:41:49;;;;;;;0.10;0.10;;;;;;;12.11;80.36;99504.69;5014848;28;20078;-86
2023/10/28 01:44:16;;;;;;;0.28;0.28;;;;;;;12.11;80.94;99488.78;5015013;28;20034;-86
2023/10/28 01:46:43;;;;;;;0.10;0.10;;;;;;;12.13;80.88;99497.53;5015084;28;20405;-86
2023/10/28 01:49:10;;;;;;;0.10;0.10;;;;;;;12.16;80.52;99492.06;5015215;28;20030;-86
2023/10/28 01:51:36;;;;;;;0.57;0.57;;;;;;;12.17;80.71;99491.13;5015143;28;20120;-86
2023/10/28 01:54:03;;;;;;;0.10;0.10;;;;;;;12.20;80.70;99488.34;5017398;28;20041;-86
2023/10/28 01:56:29;;;;;;;0.35;0.35;;;;;;;12.16;80.78;99486.75;5016167;28;20509;-86
2023/10/28 01:58:56;;;;;;;0.10;0.10;;;;;;;12.21;81.31;99494.50;5015401;28;20045;-86
2023/10/28 02:01:25;;;;;;;0.52;0.52;;;;;;;12.22;81.01;99481.13;5014213;28;20042;-86
2023/10/28 02:03:53;;;;;;;0.10;0.10;;;;;;;12.25;81.12;99486.31;5013107;28;20076;-85
2023/10/28 02:06:19;;;;;;;0.10;0.10;;;;;;;12.27;81.00;99484.47;5015204;28;20022;-86
2023/10/28 02:08:45;;;;;;;0.10;0.10;;;;;;;12.30;81.57;99492.25;5014873;28;20496;-86
2023/10/28 02:11:11;;;;;;;0.10;0.10;;;;;;;12.34;80.99;99484.16;5018526;28;20128;-86
2023/10/28 02:13:37;;;;;;;0.10;0.10;;;;;;;12.38;80.96;99488.38;5013956;28;20037;-86
2023/10/28 02:16:04;;;;;;;0.10;0.10;;;;;;;12.37;80.87;99484.00;5018426;28;20034;-85
2023/10/28 02:18:30;;;;;;;0.20;0.20;;;;;;;12.38;81.43;99485.72;5017492;28;20044;-85
2023/10/28 02:20:56;;;;;;;0.43;0.43;;;;;;;12.38;81.13;99485.72;5015716;28;20084;-85
2023/10/28 02:23:22;;;;;;;0.90;0.90;;;;;;;12.38;81.43;99481.25;5018848;28;20501;-86
2023/10/28 02:25:48;;;;;;;0.10;0.10;;;;;;;12.38;80.92;99475.09;5014239;28;20105;-86
2023/10/28 02:28:14;;;;;;;0.20;0.20;;;;;;;12.41;81.18;99470.50;5017821;28;20037;-86
2023/10/28 02:30:41;;;;;;;0.10;0.10;;;;;;;12.43;80.93;99481.03;5027171;28;20683;-85
2023/10/28 02:33:07;;;;;;;0.22;0.22;;;;;;;12.46;80.93;99480.88;5026968;28;20066;-86
2023/10/28 02:35:35;;;;;;;0.10;0.10;;;;;;;12.48;81.44;99475.50;5013121;28;20037;-86
2023/10/28 02:38:01;;;;;;;0.10;0.10;;;;;;;12.50;80.90;99474.50;5013721;28;20042;-86
2023/10/28 02:40:27;;;;;;;0.17;0.17;;;;;;;12.50;81.11;99479.81;5014822;28;20034;-86
2023/10/28 02:42:53;;;;;;;0.10;0.10;;;;;;;12.51;81.48;99476.22;5016102;28;20030;-87
2023/10/28 02:45:20;;;;;;;0.03;0.03;;;;;;;12.51;81.51;99470.91;5015956;28;20030;-86
2023/10/28 02:47:46;;;;;;;0.10;0.10;;;;;;;12.53;81.10;99461.03;5014358;28;20038;-85
2023/10/28 02:50:12;;;;;;;0.10;0.10;;;;;;;12.54;81.18;99467.22;5016115;28;20563;-84
2023/10/28 02:52:38;;;;;;;0.13;0.13;;;;;;;12.55;81.44;99477.78;5018817;28;20061;-85
2023/10/28 02:55:05;;;;;;;0.10;0.10;;;;;;;12.56;81.13;99471.53;5017784;28;20056;-86
2023/10/28 02:57:32;;;;;;;0.35;0.35;;;;;;;12.56;81.36;99468.88;5019828;28;20568;-85
2023/10/28 02:59:59;;;;;;;0.10;0.10;;;;;;;12.56;81.69;99479.50;5016967;28;20052;-85
2023/10/28 03:02:25;;;;;;;0.10;0.10;;;;;;;12.57;81.12;99481.22;5018149;28;20026;-85
2023/10/28 03:04:51;;;;;;;0.10;0.10;;;;;;;12.56;81.48;99484.81;5015137;28;20070;-84
2023/10/28 03:07:17;;;;;;;0.17;0.17;;;;;;;12.59;81.44;99484.63;5014342;28;20037;-85
2023/10/28 03:09:43;;;;;;;0.10;0.10;;;;;;;12.59;81.81;99487.28;5018153;28;20037;-84
2023/10/28 03:12:12;;;;;;;0.10;0.10;;;;;;;12.62;81.43;99480.97;5014157;28;20125;-84
2023/10/28 03:14:38;;;;;;;0.10;0.10;;;;;;;12.62;81.24;99484.50;5016682;28;20030;-84
2023/10/28 03:17:04;;;;;;;0.20;0.20;;;;;;;12.56;81.59;99478.63;5014375;28;20092;-84
2023/10/28 03:19:30;;;;;;;0.10;0.10;;;;;;;12.59;81.49;99479.31;5018739;28;20034;-84
2023/10/28 03:21:57;;;;;;;0.75;0.75;;;;;;;12.56;81.49;99478.63;5016400;28;20128;-84
2023/10/28 03:24:23;;;;;;;0.10;0.10;;;;;;;12.52;81.37;99480.56;5013126;28;20025;-85
2023/10/28 03:26:49;;;;;;;0.20;0.20;;;;;;;12.52;81.49;99477.06;5017281;28;20022;-85
2023/10/28 03:29:15;;;;;;;0.10;0.10;;;;;;;12.50;81.79;99477.16;5012462;28;20401;-85
2023/10/28 03:31:41;;;;;;;0.10;0.10;;;;;;;12.52;81.86;99477.91;5012344;28;20124;-85
2023/10/28 03:34:08;;;;;;;0.17;0.17;;;;;;;12.48;81.62;99475.50;5012785;28;20045;-83
2023/10/28 03:36:34;;;;;;;0.77;0.77;;;;;;;12.47;81.49;99474.63;5006244;28;20034;-83
2023/10/28 03:39:00;;;;;;;0.65;0.57;;;;;;;12.44;81.23;99474.78;5012506;28;20528;-83
2023/10/28 03:41:26;;;;;;;0.20;0.20;;;;;;;12.42;80.84;99482.84;5016232;28;20517;-84
2023/10/28 03:43:52;;;;;;;0.20;0.20;;;;;;;12.34;80.66;99477.03;5017101;28;20092;-83
2023/10/28 03:46:20;;;;;;;1.35;0.55;;;;;;;12.40;80.83;99481.16;5006879;28;20048;-84
2023/10/28 03:48:47;;;;;;;1.23;0.68;;;;;;;12.47;80.62;99490.56;5017941;28;20025;-85
2023/10/28 03:51:13;;;;;;;0.43;0.43;;;;;;;12.45;80.96;99492.47;5014399;28;20441;-85
2023/10/28 03:53:39;;;;;;;6.28;2.60;;;;;;;12.51;80.57;99484.19;5018086;28;20104;-84
2023/10/28 03:56:05;;;;;;;0.93;0.93;;;;;;;12.49;80.95;99478.06;5010356;28;20084;-85
2023/10/28 03:58:32;;;;;;;0.10;0.10;;;;;;;12.48;81.10;99476.34;5015971;28;20029;-85
2023/10/28 04:00:59;;;;;;;0.10;0.10;;;;;;;12.55;80.40;99472.47;5017511;28;20032;-85
2023/10/28 04:03:25;;;;;;;0.30;0.30;;;;;;;12.52;80.62;99469.94;5010846;28;20036;-84
2023/10/28 04:05:54;;;;;;;0.45;0.45;;;;;;;12.57;80.79;99470.59;5010689;28;20034;-84
2023/10/28 04:08:20;;;;;;;2.08;0.65;;;;;;;12.56;80.62;99466.22;5019817;28;20030;-84
2023/10/28 04:10:46;;;;;;;0.10;0.10;;;;;;;12.50;80.20;99462.97;5015213;28;20034;-85
2023/10/28 04:13:12;;;;;;;0.10;0.10;;;;;;;12.53;80.06;99466.34;5013004;28;20409;-84
2023/10/28 04:15:39;;;;;;;0.10;0.10;;;;;;;12.54;80.00;99460.09;5015047;28;20030;-84
2023/10/28 04:18:05;;;;;;;0.10;0.10;;;;;;;12.47;79.47;99464.00;5017545;28;20029;-85
2023/10/28 04:20:32;;;;;;;0.40;0.40;;;;;;;12.50;79.78;99463.88;5020587;28;20034;-85
2023/10/28 04:22:58;;;;;;;0.28;0.28;;;;;;;12.54;80.16;99465.41;5018366;28;20069;-84
2023/10/28 04:25:24;;;;;;;0.10;0.10;;;;;;;12.58;79.62;99469.63;5020705;28;20037;-84
2023/10/28 04:27:50;;;;;;;0.35;0.35;;;;;;;12.61;79.20;99463.28;5024504;28;20037;-85
2023/10/28 04:30:18;;;;;;;0.15;0.15;;;;;;;12.62;79.73;99463.25;5018096;28;20065;-84
2023/10/28 04:32:44;;;;;;;0.10;0.10;;;;;;;12.58;79.23;99464.31;5018039;28;20304;-84
2023/10/28 04:35:10;;;;;;;0.10;0.10;;;;;;;12.61;79.50;99461.53;5019014;28;20417;-85
2023/10/28 04:37:36;;;;;;;1.30;1.30;;;;;;;12.55;79.69;99455.66;5017697;28;20029;-85
2023/10/28 04:40:05;;;;;;;0.10;0.10;;;;;;;12.65;79.25;99461.34;5016514;28;20517;-84
2023/10/28 04:42:31;;;;;;;0.93;0.93;;;;;;;12.62;79.35;99457.94;5019310;28;20041;-85
2023/10/28 04:44:57;;;;;;;0.10;0.10;;;;;;;12.64;79.19;99457.84;5023440;28;20116;-84
2023/10/28 04:47:24;;;;;;;0.10;0.10;;;;;;;12.67;79.34;99465.66;5014702;28;20030;-84
2023/10/28 04:49:51;;;;;;;0.20;0.20;;;;;;;12.65;79.44;99456.03;5016195;28;20422;-85
2023/10/28 04:52:17;;;;;;;0.40;0.40;;;;;;;12.64;79.38;99454.34;5012950;28;20595;-84
2023/10/28 04:54:43;;;;;;;0.00;0.00;;;;;;;12.66;79.10;99452.44;5014293;28;20084;-84
2023/10/28 04:57:09;;;;;;;0.10;0.10;;;;;;;12.63;78.62;99453.47;5018660;28;20080;-84
2023/10/28 04:59:35;;;;;;;0.30;0.30;;;;;;;12.62;79.20;99444.66;5028395;28;20425;-85
2023/10/28 05:02:02;;;;;;;0.10;0.10;;;;;;;12.60;79.28;99443.00;5026744;28;20044;-85
2023/10/28 05:04:28;;;;;;;0.17;0.17;;;;;;;12.59;78.77;99444.78;5019358;28;20107;-84
2023/10/28 05:06:54;;;;;;;0.65;0.65;;;;;;;12.63;79.27;99445.50;5016837;28;20024;-85
2023/10/28 05:09:21;;;;;;;0.15;0.15;;;;;;;12.58;78.73;99439.56;5016999;28;20029;-85
2023/10/28 05:11:53;;;;;;;0.10;0.10;;;;;;;12.62;79.26;99430.47;5019088;28;20034;-85
2023/10/28 05:14:20;;;;;;;1.25;0.80;;;;;;;12.66;78.77;99437.38;5019057;28;20084;-84
2023/10/28 05:16:46;;;;;;;0.10;0.10;;;;;;;12.61;78.98;99439.38;5014290;28;20497;-85
2023/10/28 05:19:13;;;;;;;0.10;0.10;;;;;;;12.66;78.87;99436.50;5015411;28;20030;-84
2023/10/28 05:21:39;;;;;;;0.10;0.10;;;;;;;12.64;79.07;99449.03;5017361;28;20038;-85
2023/10/28 05:24:06;;;;;;;0.10;0.10;;;;;;;12.62;79.26;99447.31;5020015;28;20457;-84
2023/10/28 05:26:32;;;;;;;0.10;0.10;;;;;;;12.67;79.21;99444.38;5015276;28;20060;-85
2023/10/28 05:28:58;;;;;;;0.10;0.10;;;;;;;12.69;79.17;99454.97;5015660;28;20112;-85
2023/10/28 05:31:26;;;;;;;0.17;0.17;;;;;;;12.64;79.04;99443.72;5014408;28;20497;-85
2023/10/28 05:33:52;;;;;;;0.10;0.10;;;;;;;12.66;79.40;99442.69;5018319;28;20497;-83
2023/10/28 05:36:18;;;;;;;0.20;0.20;;;;;;;12.72;78.97;99446.81;5016558;28;20517;-86
2023/10/28 05:38:44;;;;;;;0.10;0.10;;;;;;;12.76;78.91;99443.06;5011645;28;20038;-85
2023/10/28 05:41:11;;;;;;;0.10;0.10;;;;;;;12.65;79.15;99451.59;5015842;28;20397;-85
2023/10/28 05:43:38;;;;;;;0.20;0.20;;;;;;;12.69;78.99;99441.69;5014025;28;20034;-83
2023/10/28 05:46:04;;;;;;;0.10;0.10;;;;;;;12.68;79.32;99440.78;5019923;28;20104;-84
2023/10/28 05:48:32;;;;;;;0.40;0.40;;;;;;;12.67;79.62;99438.22;5016084;28;20033;-84
2023/10/28 05:50:58;;;;;;;0.75;0.63;;;;;;;12.68;79.19;99439.94;5005566;28;20033;-85
2023/10/28 05:53:24;;;;;;;0.10;0.10;;;;;;;12.68;79.27;99447.91;5018546;28;20030;-86
2023/10/28 05:55:51;;;;;;;0.20;0.20;;;;;;;12.68;79.24;99450.59;5011756;28;20045;-85
2023/10/28 05:58:17;;;;;;;0.10;0.10;;;;;;;12.69;79.54;99445.19;5018156;28;20212;-85
2023/10/28 06:00:44;;;;;;;0.10;0.10;;;;;;;12.75;79.36;99447.53;5016540;28;20141;-86
2023/10/28 06:03:10;;;;;;;0.10;0.10;;;;;;;12.68;79.15;99440.78;5014463;28;20026;-84
2023/10/28 06:05:36;;;;;;;0.10;0.10;;;;;;;12.70;79.25;99443.41;5015665;28;20032;-85
2023/10/28 06:08:02;;;;;;;0.10;0.10;;;;;;;12.73;79.88;99443.22;5017439;28;20034;-84
2023/10/28 06:10:29;;;;;;;0.08;0.08;;;;;;;12.67;79.63;99438.22;5019770;28;20559;-85
2023/10/28 06:12:55;;;;;;;0.30;0.30;;;;;;;12.69;79.64;99439.88;5013345;28;20435;-85
2023/10/28 06:15:24;;;;;;;0.15;0.15;;;;;;;12.81;79.18;99446.34;5018025;28;20030;-85
2023/10/28 06:17:50;;;;;;;0.10;0.10;;;;;;;12.84;78.91;99446.19;5023588;28;20037;-84
2023/10/28 06:20:17;;;;;;;2.33;1.75;;;;;;;12.79;78.81;99448.22;5016428;28;20049;-85
2023/10/28 06:22:43;;;;;;;0.13;0.13;;;;;;;12.89;79.08;99437.97;5021316;28;20038;-84
2023/10/28 06:25:09;;;;;;;0.10;0.10;;;;;;;12.81;79.33;99446.34;5014421;28;20401;-85
2023/10/28 06:27:35;;;;;;;0.47;0.47;;;;;;;12.78;79.42;99451.81;5011070;28;20413;-85
2023/10/28 06:30:02;;;;;;;0.25;0.25;;;;;;;12.82;79.15;99449.88;5014766;28;20139;-85
2023/10/28 06:32:28;;;;;;;0.00;0.00;;;;;;;12.77;79.21;99453.63;5015214;28;20041;-85
2023/10/28 06:34:55;;;;;;;0.10;0.10;;;;;;;12.82;79.15;99456.03;5009732;28;20026;-85
2023/10/28 06:37:21;;;;;;;0.10;0.10;;;;;;;12.84;79.56;99456.81;5005958;28;20153;-85
2023/10/28 06:39:47;;;;;;;0.10;0.10;;;;;;;12.84;79.41;99459.47;5003137;28;20077;-84
2023/10/28 06:42:14;;;;;;;0.10;0.10;;;;;;;12.80;79.69;99449.94;5005570;28;20037;-85
2023/10/28 06:44:40;;;;;;;0.10;0.10;;;;;;;12.85;79.21;99455.88;5007783;28;20558;-86
2023/10/28 06:47:07;;;;;;;0.10;0.10;;;;;;;12.91;79.33;99449.38;5013759;28;22034;-86
2023/10/28 06:49:33;;;;;;;0.20;0.20;;;;;;;12.89;79.11;99452.13;5018403;28;20026;-84
2023/10/28 06:51:59;;;;;;;0.10;0.10;;;;;;;12.91;79.28;99442.28;5017270;28;20041;-84
2023/10/28 06:54:25;;;;;;;0.10;0.10;;;;;;;12.90;79.71;99448.53;5014567;28;20113;-84
2023/10/28 06:56:51;;;;;;;0.10;0.10;;;;;;;12.95;79.50;99446.47;5013868;28;20036;-82
2023/10/28 06:59:18;;;;;;;0.10;0.10;;;;;;;12.91;79.35;99442.28;5016535;28;20048;-84
2023/10/28 07:01:44;;;;;;;0.10;0.10;;;;;;;12.98;79.64;99447.28;5017823;28;20030;-83
2023/10/28 07:04:11;;;;;;;0.10;0.10;;;;;;;12.87;80.10;99458.47;5017325;28;20057;-85
2023/10/28 07:06:39;;;;;;;0.15;0.15;;;;;;;12.90;80.48;99459.16;5025587;28;20160;-84
2023/10/28 07:09:05;;;;;;;0.10;0.10;;;;;;;12.99;79.28;99454.31;5036399;28;20022;-83
2023/10/28 07:11:32;;;;;;;0.32;0.32;;;;;;;13.03;79.66;99450.53;5032803;28;20056;-79
2023/10/28 07:13:58;;;;;;;0.10;0.10;;;;;;;12.95;80.21;99449.16;5031988;28;20044;-82
2023/10/28 07:16:24;;;;;;;1.40;1.40;;;;;;;12.95;80.20;99454.47;5026275;28;20033;-81
2023/10/28 07:18:50;;;;;;;0.10;0.10;;;;;;;12.89;79.70;99453.94;5018546;28;20030;-81
2023/10/28 07:21:17;;;;;;;0.10;0.10;;;;;;;13.05;79.25;99459.31;5018059;28;20049;-83
2023/10/28 07:23:43;;;;;;;0.10;0.10;;;;;;;13.04;79.46;99457.59;5016644;28;20122;-83
2023/10/28 07:26:12;;;;;;;0.10;0.10;;;;;;;12.96;79.85;99463.31;5016731;28;20018;-84
2023/10/28 07:28:38;;;;;;;0.10;0.10;;;;;;;13.01;80.05;99468.38;5021517;28;20022;-80
2023/10/28 07:31:05;;;;;;;0.10;0.10;;;;;;;12.93;79.90;99467.00;5026277;28;20036;-81
2023/10/28 07:33:32;;;;;;;0.00;0.00;;;;;;;13.02;80.16;99462.13;5018931;28;20370;-82
2023/10/28 07:36:02;;;;;;;0.10;0.10;;;;;;;13.02;79.90;99464.78;5016556;28;20068;-82
2023/10/28 07:38:28;;;;;;;0.20;0.20;;;;;;;13.05;79.82;99461.97;5016126;28;20030;-79
2023/10/28 07:40:55;;;;;;;0.10;0.10;;;;;;;13.04;79.82;99476.19;5018319;28;20044;-83
2023/10/28 07:43:21;;;;;;;0.10;0.10;;;;;;;13.07;79.79;99473.38;5017340;28;20085;-83
2023/10/28 07:45:47;;;;;;;0.10;0.10;;;;;;;13.09;79.80;99472.34;5017424;28;20109;-83
2023/10/28 07:48:14;;;;;;;1.38;1.27;;;;;;;13.17;79.68;99474.63;5014568;28;20030;-82
2023/10/28 07:50:41;;;;;;;0.10;0.10;;;;;;;13.22;79.72;99479.69;5020949;28;20565;-83
2023/10/28 07:53:11;;;;;;;0.20;0.20;;;;;;;13.20;79.54;99481.59;5018487;28;20026;-81
2023/10/28 07:55:38;;;;;;;0.10;0.10;;;;;;;13.30;79.66;99492.59;5011779;28;20033;-83
2023/10/28 07:58:05;;;;;;;0.35;0.35;;;;;;;13.30;79.51;99484.63;5017897;28;20033;-84
2023/10/28 08:00:31;;;;;;;0.10;0.10;;;;;;;13.32;79.41;99477.38;5017621;28;20030;-84
2023/10/28 08:02:58;;;;;;;0.30;0.30;;;;;;;13.33;79.39;99489.75;5019905;28;20049;-85
2023/10/28 08:05:26;;;;;;;0.05;0.05;;;;;;;13.36;79.82;99484.28;5019184;28;20103;-82
2023/10/28 08:07:52;;;;;;;0.28;0.28;;;;;;;13.35;79.49;99483.41;5017685;28;20386;-82
2023/10/28 08:10:22;;;;;;;0.10;0.10;;;;;;;13.53;79.76;99480.72;5016099;28;20038;-84
2023/10/28 08:12:51;;;;;;;0.05;0.05;;;;;;;13.50;79.63;99481.75;5014822;28;20022;-84
2023/10/28 08:15:19;;;;;;;0.63;0.63;;;;;;;13.55;79.53;99474.38;5017184;28;20038;-84
2023/10/28 08:17:46;;;;;;;0.10;0.10;;;;;;;13.62;79.49;99477.59;5019070;28;20493;-84
2023/10/28 08:20:14;;;;;;;0.10;0.10;;;;;;;13.61;79.00;99481.19;5019096;28;20038;-84
2023/10/28 08:22:40;;;;;;;0.10;0.10;;;;;;;13.66;79.04;99481.78;5017945;28;20071;-84
2023/10/28 08:25:08;;;;;;;0.20;0.20;;;;;;;13.69;78.93;99484.28;5020018;28;20041;-83
2023/10/28 08:27:34;;;;;;;0.10;0.10;;;;;;;13.66;78.25;99475.63;5018757;28;20033;-84
2023/10/28 08:30:01;;;;;;;0.30;0.30;;;;;;;13.65;78.46;99479.22;5020223;28;20397;-83
2023/10/28 08:32:30;;;;;;;0.10;0.10;;;;;;;13.69;78.65;99481.59;5020339;28;20040;-85
2023/10/28 08:34:56;;;;;;;0.35;0.35;;;;;;;13.67;78.31;99485.31;5017857;28;20026;-85
2023/10/28 08:37:23;;;;;;;0.15;0.15;;;;;;;13.77;78.73;99478.56;5020632;28;20048;-85
2023/10/28 08:39:49;;;;;;;0.10;0.10;;;;;;;13.84;78.81;99485.22;5021580;28;20080;-84
2023/10/28 08:42:17;;;;;;;0.10;0.10;;;;;;;14.00;77.78;99485.25;5020383;28;20029;-85
2023/10/28 08:44:44;;;;;;;0.10;0.10;;;;;;;14.17;77.22;99489.63;5019301;28;20509;-84
2023/10/28 08:47:10;;;;;;;0.10;0.10;;;;;;;14.19;77.72;99490.41;5018886;28;20037;-84
2023/10/28 08:49:39;;;;;;;0.20;0.20;;;;;;;14.24;77.62;99493.66;5021224;28;20084;-84
2023/10/28 08:52:11;;;;;;;0.10;0.10;;;;;;;14.26;76.76;99501.56;5019446;28;20026;-84
2023/10/28 08:54:39;;;;;;;1.23;1.15;;;;;;;14.34;76.96;99502.00;5020609;28;20042;-84
2023/10/28 08:57:08;;;;;;;0.10;0.10;;;;;;;14.43;76.60;99503.28;5018194;28;20026;-85
2023/10/28 08:59:34;;;;;;;0.40;0.40;;;;;;;14.46;76.03;99504.91;5018588;28;20053;-86
2023/10/28 09:02:04;;;;;;;0.10;0.10;;;;;;;14.39;75.89;99501.72;5017991;28;20034;-85
2023/10/28 09:04:31;;;;;;;0.10;0.10;;;;;;;14.57;75.09;99500.66;5016044;28;20392;-85
2023/10/28 09:07:00;;;;;;;0.20;0.20;;;;;;;14.56;75.48;99498.06;5016794;28;20105;-85
2023/10/28 09:09:27;;;;;;;0.05;0.05;;;;;;;14.63;75.32;99504.78;5021703;28;20065;-84
2023/10/28 09:11:58;;;;;;;2.22;2.03;;;;;;;14.75;74.96;99519.22;5022553;28;20053;-85
2023/10/28 09:14:24;;;;;;;0.00;0.00;;;;;;;14.94;75.03;99515.47;5019151;28;20029;-86
2023/10/28 09:16:51;;;;;;;0.08;0.08;;;;;;;14.84;73.74;99516.03;5013835;28;20404;-83
2023/10/28 09:19:21;;;;;;;0.10;0.10;;;;;;;14.82;73.68;99515.25;5014446;28;20017;-87
2023/10/28 09:21:49;;;;;;;0.10;0.10;;;;;;;14.87;73.53;99521.16;5013930;28;20061;-86
2023/10/28 09:24:16;;;;;;;0.10;0.10;;;;;;;15.05;73.99;99513.00;5015142;28;20042;-86
2023/10/28 09:26:42;;;;;;;0.30;0.30;;;;;;;15.07;72.40;99527.13;5014335;28;20104;-85
2023/10/28 09:29:08;;;;;;;0.00;0.00;;;;;;;15.17;73.22;99520.28;5009866;28;20049;-85
2023/10/28 09:31:34;;;;;;;0.05;0.05;;;;;;;15.30;72.48;99530.22;5012635;28;20077;-86
2023/10/28 09:34:01;;;;;;;0.10;0.10;;;;;;;15.23;73.34;99528.84;5012026;28;20033;-89
2023/10/28 09:36:29;;;;;;;0.10;0.10;;;;;;;15.32;72.38;99525.66;5014279;28;20109;-88
2023/10/28 09:38:56;;;;;;;0.10;0.10;;;;;;;15.40;71.51;99530.50;5015003;28;20382;-79
2023/10/28 09:41:23;;;;;;;0.32;0.32;;;;;;;15.45;71.11;99523.94;5012024;28;20061;-86
2023/10/28 09:43:50;;;;;;;0.00;0.00;;;;;;;15.64;71.84;99531.66;5014686;28;20400;-84
2023/10/28 09:46:20;;;;;;;0.00;0.00;;;;;;;15.64;71.17;99528.16;5016536;28;20100;-82
2023/10/28 09:48:49;;;;;;;1.30;1.20;;;;;;;15.63;69.60;99531.78;5022275;28;20307;-83
2023/10/28 09:51:22;;;;;;;0.08;0.08;;;;;;;15.56;69.13;99533.94;5018714;28;20083;-83
2023/10/28 09:53:58;;;;;;;0.05;0.05;;;;;;;15.56;68.79;99536.63;5018873;28;20038;-82
2023/10/28 09:56:30;;;;;;;0.65;0.65;;;;;;;15.50;69.01;99537.88;5024133;28;20413;-83
2023/10/28 09:59:04;;;;;;;1.70;1.60;;;;;;;15.31;67.60;99537.25;5026467;28;20082;-81
2023/10/28 10:04:47;;;;;;;0.00;0.00;;;;;;;15.30;68.04;99546.22;5101296;27;20397;-83
2023/10/28 10:07:13;;;;;;;0.10;0.10;;;;;;;15.30;69.54;99540.88;5093245;28;20041;-84
2023/10/28 10:09:41;;;;;;;0.10;0.10;;;;;;;15.27;68.33;99541.94;5088133;28;20398;-83
2023/10/28 10:12:08;;;;;;;0.00;0.00;;;;;;;15.31;68.20;99540.78;5090552;28;20055;-84
2023/10/28 10:14:38;;;;;;;0.10;0.10;;;;;;;15.37;67.39;99547.56;5094005;28;20031;-84
2023/10/28 10:20:36;;;;;;;0.10;0.10;;;;;;;15.46;68.16;99552.34;5113482;27;20925;-82
2023/10/28 10:23:03;;;;;;;0.00;0.00;;;;;;;15.20;68.07;99557.47;5100107;28;20502;-82
2023/10/28 10:28:13;;;;;;;0.17;0.17;;;;;;;15.32;68.36;99555.00;5122038;27;20861;-83
2023/10/28 10:30:40;;;;;;;0.10;0.10;;;;;;;15.39;68.17;99555.47;5109669;28;20039;-81
2023/10/28 10:33:07;;;;;;;0.00;0.00;;;;;;;15.37;67.69;99566.25;5111159;28;20032;-80
2023/10/28 10:35:34;;;;;;;0.15;0.15;;;;;;;15.38;67.94;99557.28;5097324;28;20028;-80
2023/10/28 10:43:20;;;;;;;0.15;0.15;;;;;;;15.47;67.87;99553.22;5097133;27;20412;-81
2023/10/28 10:45:48;;;;;;;0.20;0.20;;;;;;;15.50;67.38;99561.91;5099424;28;20032;-81
2023/10/28 10:48:16;;;;;;;0.00;0.00;;;;;;;15.52;66.82;99557.28;5097332;28;20050;-81
2023/10/28 10:50:43;;;;;;;0.15;0.15;;;;;;;15.42;66.27;99556.16;5099339;28;20067;-82
2023/10/28 10:53:09;;;;;;;1.27;1.27;;;;;;;15.48;66.99;99557.59;5101091;28;20089;-81
2023/10/28 10:55:35;;;;;;;0.10;0.10;;;;;;;15.46;66.51;99552.34;5098601;28;20029;-80
2023/10/28 10:58:03;;;;;;;0.05;0.05;;;;;;;15.57;66.37;99548.16;5093104;28;20037;-81
2023/10/28 11:00:29;;;;;;;0.80;0.80;;;;;;;15.58;65.71;99549.88;5089103;28;20057;-81
2023/10/28 11:02:59;;;;;;;0.10;0.10;;;;;;;15.55;65.61;99558.06;5091445;28;20024;-81
2023/10/28 11:05:30;;;;;;;0.03;0.03;;;;;;;15.66;65.15;99547.59;5091087;28;20032;-80
2023/10/28 11:07:56;;;;;;;0.10;0.10;;;;;;;15.76;65.95;99546.06;5101055;28;20501;-81
2023/10/28 11:10:23;;;;;;;0.05;0.05;;;;;;;15.73;64.90;99548.94;5097434;28;20024;-81
2023/10/28 11:12:50;;;;;;;0.00;0.00;;;;;;;15.77;65.35;99547.78;5099221;28;20024;-81
2023/10/28 11:15:16;;;;;;;0.63;0.60;;;;;;;15.66;65.16;99540.44;5088582;28;20111;-79
2023/10/28 11:17:43;;;;;;;1.65;1.55;;;;;;;15.69;65.31;99547.41;5093309;28;20025;-81
2023/10/28 11:20:11;;;;;;;0.10;0.10;;;;;;;15.72;65.32;99541.88;5089432;28;20033;-81
2023/10/28 11:22:39;;;;;;;0.00;0.00;;;;;;;15.56;64.44;99549.97;5092062;28;20032;-80
2023/10/28 11:25:07;;;;;;;0.47;0.47;;;;;;;15.68;65.79;99540.34;5088738;28;20039;-80
2023/10/28 11:27:33;;;;;;;0.10;0.10;;;;;;;15.71;66.17;99545.47;5095233;28;20092;-81
2023/10/28 11:30:00;;;;;;;0.10;0.10;;;;;;;15.66;65.49;99540.44;5091844;28;20390;-81
2023/10/28 11:32:27;;;;;;;0.10;0.10;;;;;;;15.77;65.60;99534.41;5092891;28;20024;-81
2023/10/28 11:34:55;;;;;;;0.10;0.10;;;;;;;15.73;65.25;99538.25;5100873;28;20020;-80
2023/10/28 11:37:22;;;;;;;0.10;0.10;;;;;;;15.84;65.46;99534.94;5101802;28;20466;-80
2023/10/28 11:39:48;;;;;;;0.40;0.40;;;;;;;15.85;65.39;99548.19;5103659;28;20031;-81
2023/10/28 11:42:17;;;;;;;0.85;0.85;;;;;;;15.79;64.13;99548.53;5100015;28;20032;-81
2023/10/28 11:44:51;;;;;;;0.10;0.10;;;;;;;15.85;64.27;99553.53;5102553;28;20422;-82
2023/10/28 11:47:19;;;;;;;0.10;0.10;;;;;;;15.77;63.10;99538.91;5098989;28;20082;-79